首页
METAR-TAF:

METAR-TAF

机场 :

Yeovilton, 英格兰

纬度: 51-00N, 经度: 002-38W, 海拔: 23米

当前天气观测

该预报发布于11分钟前的21:21 UTC
风速14节,风向西转西北
温度 8°C
湿度 81%
气压 1002 hPa
能见度10公里或以上
少量云层高于4000英尺

METAR: EGDY 122121Z 30014KT 9999 FEW040 08/05 Q1002 NOSIG RMK BLU BLU

时间: 21:32 (21:32 UTC)

预报

该预报发布于5小时和14分钟前的16:18 UTC
预报有效从12日的 18点(UTC)到 13日的 03点(UTC)
风速12节,风向西转西北
能见度10公里或以上
少量云层高于2200英尺
多云层高于3500英尺
短暂存在
从 12日的 18点(UTC)到 12日的 24点(UTC)
能見度: 7000
散云层高于2200英尺
多云层高于3500英尺
小雨

TAF: EGDY 121618Z 1218/1303 30012KT 9999 FEW022 BKN035 TEMPO 1218/1224 7000 -RA SCT022 BKN035

超过4000个机场的气象观测和天气预报(METAR&TAF报告)。

可查询的气象台以黄色和红色小点在地图上表示。

将鼠标移到小点上方,可查看气象台名称。

然后点击查看天气观测和预报。

如需切换地图:点击带黑十字的绿色按钮放大地图;点击带横线的绿色按钮缩小地图;或者点击绿色箭头查看邻近地区的地图。


METAR-TAF: